Time;durP1;ratioP1;P1;durP2;ratioP2;P2;SDS_P1;SDS_P2;PMS_P1;PMS_P2;Temp;Humidity;BMP_temperature;BMP_pressure;BME280_temperature;BME280_humidity;BME280_pressure;Samples;Min_cycle;Max_cycle;Signal;HPM_P1;HPM_P2
2023/12/04 00:01:26;;;;;;;;;;;;;;;-3.07;63.40;98358.53;4970559;28;19922;-80
2023/12/04 00:07:52;;;;;;;;;;;;;;;-3.43;64.24;98347.44;4965107;28;19930;-82
2023/12/04 00:10:42;;;;;;;;;;;;;;;-3.22;63.69;98349.00;4969211;28;19982;-82
2023/12/04 00:17:10;;;;;;;;;;;;;;;-3.65;65.10;98335.50;4963168;28;20336;-82
2023/12/04 00:20:00;;;;;;;;;;;;;;;-3.63;64.37;98332.63;4963850;28;20073;-82
2023/12/04 00:22:48;;;;;;;;;;;;;;;-3.11;63.69;98330.75;4962298;28;19927;-81
2023/12/04 00:25:43;;;;;;;;;;;;;;;-3.37;63.70;98332.50;4969708;28;20039;-80
2023/12/04 00:32:08;;;;;;;;;;;;;;;-4.16;65.63;98317.63;4966552;28;19973;-81
2023/12/04 00:34:56;;;;;;;;;;;;;;;-4.04;65.98;98305.38;4968636;28;19934;-82
2023/12/04 00:37:44;;;;;;;;;;;;;;;-4.27;67.26;98299.69;4966966;28;20417;-83
2023/12/04 00:40:33;;;;;;;;;;;;;;;-4.28;67.30;98290.13;4968193;28;19930;-81
2023/12/04 00:43:23;;;;;;;;;;;;;;;-4.24;66.99;98278.88;4968632;28;19923;-83
2023/12/04 00:46:11;;;;;;;;;;;;;;;-4.45;67.30;98278.31;4950628;28;19934;-84
2023/12/04 00:48:59;;;;;;;;;;;;;;;-4.19;67.16;98272.97;4960381;28;19981;-81
2023/12/04 00:51:48;;;;;;;;;;;;;;;-3.80;66.14;98264.06;4965927;28;20052;-81
2023/12/04 00:54:39;;;;;;;;;;;;;;;-3.71;65.31;98270.75;4969755;28;20024;-82
2023/12/04 00:57:28;;;;;;;;;;;;;;;-3.76;65.71;98270.59;4968383;28;19931;-80
2023/12/04 01:00:18;;;;;;;;;;;;;;;-3.99;66.89;98270.25;4967350;28;19929;-82
2023/12/04 01:03:07;;;;;;;;;;;;;;;-4.03;65.88;98274.34;4969722;28;19972;-78
2023/12/04 01:05:55;;;;;;;;;;;;;;;-3.56;65.19;98265.19;4967957;28;20378;-81
2023/12/04 01:08:43;;;;;;;;;;;;;;;-3.71;65.75;98259.34;4964069;28;19929;-81
2023/12/04 01:11:32;;;;;;;;;;;;;;;-3.40;64.42;98268.38;4966857;28;19977;-79
2023/12/04 01:14:22;;;;;;;;;;;;;;;-3.33;63.82;98275.28;4969671;28;19926;-81
2023/12/04 01:17:11;;;;;;;;;;;;;;;-2.93;63.47;98275.00;4971745;28;20022;-83
2023/12/04 01:20:00;;;;;;;;;;;;;;;-2.79;62.53;98265.91;4972183;28;19926;-81
2023/12/04 01:22:48;;;;;;;;;;;;;;;-2.87;62.44;98260.88;4966943;28;19929;-82
2023/12/04 01:25:42;;;;;;;;;;;;;;;-2.52;61.81;98245.22;4972807;28;19945;-81
2023/12/04 01:32:07;;;;;;;;;;;;;;;-2.47;61.80;98231.25;4972316;28;19929;-82
2023/12/04 01:34:57;;;;;;;;;;;;;;;-2.92;61.78;98229.63;4967037;28;19922;-82
2023/12/04 01:37:45;;;;;;;;;;;;;;;-3.13;63.59;98222.00;4970284;28;19929;-81
2023/12/04 01:40:33;;;;;;;;;;;;;;;-3.82;64.97;98218.34;4968930;28;19922;-82
2023/12/04 01:43:22;;;;;;;;;;;;;;;-3.72;65.49;98208.06;4970898;28;20431;-80
2023/12/04 01:46:35;;;;;;;;;;;;;;;-3.43;64.55;98211.16;4971759;28;19933;-82
2023/12/04 01:50:37;;;;;;;;;;;;;;;-3.35;64.53;98216.25;4968265;28;19965;-81
2023/12/04 01:53:50;;;;;;;;;;;;;;;-2.90;63.03;98211.59;4966385;28;20375;-81
2023/12/04 01:59:52;;;;;;;;;;;;;;;-2.70;62.45;98205.28;4965437;28;19930;-83
2023/12/04 02:02:40;;;;;;;;;;;;;;;-2.69;62.11;98202.41;4970965;28;20439;-81
2023/12/04 02:05:28;;;;;;;;;;;;;;;-2.69;62.03;98205.06;4973029;28;20319;-80
2023/12/04 02:08:18;;;;;;;;;;;;;;;-2.66;62.00;98195.84;4968852;28;20382;-81
2023/12/04 02:11:08;;;;;;;;;;;;;;;-2.63;62.00;98190.88;4973275;28;19933;-81
2023/12/04 02:14:22;;;;;;;;;;;;;;;-2.68;62.10;98193.41;4970776;28;19929;-81
2023/12/04 02:17:15;;;;;;;;;;;;;;;-3.02;63.32;98189.41;4966538;28;19922;-80
2023/12/04 02:20:05;;;;;;;;;;;;;;;-2.84;62.62;98187.81;4966561;28;19929;-79
2023/12/04 02:22:53;;;;;;;;;;;;;;;-3.06;63.50;98185.56;4972097;28;20375;-80
2023/12/04 02:25:43;;;;;;;;;;;;;;;-3.13;63.37;98179.50;4968327;28;20387;-81
2023/12/04 02:28:56;;;;;;;;;;;;;;;-3.07;63.42;98180.47;4970219;28;20288;-80
2023/12/04 02:32:09;;;;;;;;;;;;;;;-2.78;62.39;98182.44;4971070;28;19929;-80
2023/12/04 02:34:57;;;;;;;;;;;;;;;-3.05;62.32;98181.06;4972839;28;19922;-80
2023/12/04 02:37:45;;;;;;;;;;;;;;;-2.92;62.40;98175.63;4970752;28;19922;-81
2023/12/04 02:40:33;;;;;;;;;;;;;;;-2.64;61.85;98170.66;4968489;28;19922;-80
2023/12/04 02:43:23;;;;;;;;;;;;;;;-2.51;61.59;98174.19;4972105;28;20279;-82
2023/12/04 02:46:12;;;;;;;;;;;;;;;-2.46;61.19;98175.16;4971185;28;20007;-81
2023/12/04 02:49:03;;;;;;;;;;;;;;;-2.37;61.03;98162.38;4968052;28;20364;-80
2023/12/04 02:51:52;;;;;;;;;;;;;;;-2.39;60.97;98164.47;4970728;28;19968;-81
2023/12/04 02:54:40;;;;;;;;;;;;;;;-2.64;61.69;98165.34;4967733;28;20003;-80
2023/12/04 02:57:28;;;;;;;;;;;;;;;-2.72;61.84;98162.13;4970609;28;20063;-80
2023/12/04 03:00:19;;;;;;;;;;;;;;;-2.54;61.57;98161.34;4967641;28;19926;-83
2023/12/04 03:03:07;;;;;;;;;;;;;;;-2.48;60.95;98155.16;4972557;28;20572;-80
2023/12/04 03:05:55;;;;;;;;;;;;;;;-2.52;61.57;98154.78;4970766;28;19922;-82
2023/12/04 03:08:43;;;;;;;;;;;;;;;-2.49;61.08;98150.88;4969457;28;19961;-85
2023/12/04 03:11:32;;;;;;;;;;;;;;;-2.63;61.20;98158.97;4971808;28;19926;-80
2023/12/04 03:14:25;;;;;;;;;;;;;;;-2.63;61.27;98151.00;4972480;28;19922;-83
2023/12/04 03:17:14;;;;;;;;;;;;;;;-2.60;61.43;98160.41;4968579;28;20368;-81
2023/12/04 03:20:03;;;;;;;;;;;;;;;-2.55;61.32;98159.75;4968915;28;19934;-82
2023/12/04 03:22:51;;;;;;;;;;;;;;;-2.72;61.73;98159.47;4964817;28;20008;-82
2023/12/04 03:25:40;;;;;;;;;;;;;;;-2.58;61.56;98154.84;4971848;28;20376;-81
2023/12/04 03:28:53;;;;;;;;;;;;;;;-2.57;61.35;98156.47;4971025;28;20689;-82
2023/12/04 03:32:31;;;;;;;;;;;;;;;-2.65;61.16;98147.75;4965957;28;19922;-82
2023/12/04 03:35:20;;;;;;;;;;;;;;;-2.70;62.02;98146.78;4967832;28;19934;-80
2023/12/04 03:38:08;;;;;;;;;;;;;;;-2.50;61.40;98152.72;4967823;28;20344;-80
2023/12/04 03:47:46;;;;;;;;;;;;;;;-2.79;62.09;98142.78;4965591;28;19922;-81
2023/12/04 03:50:34;;;;;;;;;;;;;;;-2.83;62.13;98134.44;4967106;28;19922;-83
2023/12/04 03:53:23;;;;;;;;;;;;;;;-2.72;62.29;98132.88;4966085;28;19941;-80
2023/12/04 03:56:11;;;;;;;;;;;;;;;-2.67;62.19;98131.19;4970597;28;20081;-81
2023/12/04 03:58:59;;;;;;;;;;;;;;;-2.40;61.10;98120.25;4963296;28;19922;-81
2023/12/04 04:01:49;;;;;;;;;;;;;;;-2.43;61.01;98118.06;4965149;28;20036;-81
2023/12/04 04:04:39;;;;;;;;;;;;;;;-2.58;61.37;98112.28;4969545;28;20284;-81
2023/12/04 04:07:28;;;;;;;;;;;;;;;-2.33;61.02;98106.91;4968220;28;20056;-81
2023/12/04 04:10:17;;;;;;;;;;;;;;;-2.34;61.02;98110.56;4967914;28;19973;-82
2023/12/04 04:13:05;;;;;;;;;;;;;;;-2.79;61.90;98106.38;4964311;28;19922;-79
2023/12/04 04:15:56;;;;;;;;;;;;;;;-2.73;62.20;98102.81;4963569;28;19922;-80
2023/12/04 04:18:44;;;;;;;;;;;;;;;-2.92;62.28;98091.38;4965230;28;20001;-81
2023/12/04 04:21:35;;;;;;;;;;;;;;;-3.23;63.39;98089.63;4968646;28;19922;-81
2023/12/04 04:24:24;;;;;;;;;;;;;;;-3.38;63.26;98085.69;4965560;28;20256;-83
2023/12/04 04:27:14;;;;;;;;;;;;;;;-3.17;63.32;98086.09;4966472;28;19922;-84
2023/12/04 04:30:21;;;;;;;;;;;;;;;-3.19;62.74;98080.19;4968858;28;19965;-81
2023/12/04 04:33:11;;;;;;;;;;;;;;;-3.06;62.68;98079.25;4966330;28;19929;-82
2023/12/04 04:35:59;;;;;;;;;;;;;;;-3.28;64.19;98076.19;4965956;28;20375;-80
2023/12/04 04:42:02;;;;;;;;;;;;;;;-2.94;62.53;98079.31;4968172;28;19977;-82
2023/12/04 04:45:15;;;;;;;;;;;;;;;-3.07;62.53;98082.13;4964195;28;20045;-81
2023/12/04 04:48:05;;;;;;;;;;;;;;;-3.51;63.69;98070.69;4965459;28;19922;-80
2023/12/04 04:50:54;;;;;;;;;;;;;;;-3.18;62.97;98075.69;4968860;28;19925;-81
2023/12/04 04:53:43;;;;;;;;;;;;;;;-3.17;63.12;98062.19;4967424;28;19989;-81
2023/12/04 04:59:45;;;;;;;;;;;;;;;-3.12;63.27;98056.22;4971486;28;19922;-81
2023/12/04 05:02:35;;;;;;;;;;;;;;;-3.28;62.93;98054.13;4971012;28;19922;-79
2023/12/04 05:05:23;;;;;;;;;;;;;;;-3.43;63.33;98041.97;4967119;28;19934;-83
2023/12/04 05:08:12;;;;;;;;;;;;;;;-3.56;64.15;98033.34;4969591;28;20009;-84
2023/12/04 05:11:00;;;;;;;;;;;;;;;-3.58;63.90;98032.72;4974389;28;19968;-82
2023/12/04 05:14:13;;;;;;;;;;;;;;;-3.29;63.99;98033.91;4976251;28;19929;-80
2023/12/04 05:17:27;;;;;;;;;;;;;;;-3.87;64.74;98019.06;4963677;28;19922;-82
2023/12/04 05:20:16;;;;;;;;;;;;;;;-3.92;65.60;98018.91;4974535;28;19969;-81
2023/12/04 05:23:05;;;;;;;;;;;;;;;-3.45;65.17;98017.50;4969382;28;19930;-83
2023/12/04 05:25:54;;;;;;;;;;;;;;;-3.80;65.38;98013.72;4971616;28;19922;-87
2023/12/04 05:29:08;;;;;;;;;;;;;;;-4.22;66.33;98014.19;4972772;28;19930;-83
2023/12/04 05:32:20;;;;;;;;;;;;;;;-4.25;66.63;98009.34;4958373;28;19922;-82
2023/12/04 05:35:13;;;;;;;;;;;;;;;-4.14;66.64;98001.72;4973171;28;19981;-81
2023/12/04 05:38:01;;;;;;;;;;;;;;;-3.88;65.91;98000.72;4966281;28;20020;-79
2023/12/04 05:40:49;;;;;;;;;;;;;;;-3.85;66.36;98001.09;4968774;28;20316;-84
2023/12/04 05:44:03;;;;;;;;;;;;;;;-3.23;64.44;97998.47;4968167;28;19991;-78
2023/12/04 05:50:30;;;;;;;;;;;;;;;-2.97;63.71;97981.44;4954621;28;19928;-78
2023/12/04 05:53:19;;;;;;;;;;;;;;;-2.99;63.01;97980.81;4969812;28;20459;-79
2023/12/04 05:56:08;;;;;;;;;;;;;;;-2.92;62.95;97984.22;4969928;28;20390;-77
2023/12/04 05:58:57;;;;;;;;;;;;;;;-2.68;62.34;97980.63;4974841;28;19980;-78
2023/12/04 06:01:46;;;;;;;;;;;;;;;-2.58;62.41;97977.44;4969247;28;19929;-78
2023/12/04 06:04:34;;;;;;;;;;;;;;;-2.53;61.91;97980.25;4972081;28;19926;-79
2023/12/04 06:07:24;;;;;;;;;;;;;;;-2.42;61.89;97965.38;4969303;28;20326;-80
2023/12/04 06:10:37;;;;;;;;;;;;;;;-2.35;61.32;97966.06;4971408;28;20364;-77
2023/12/04 06:14:14;;;;;;;;;;;;;;;-2.19;60.97;97967.28;4966224;28;19922;-77
2023/12/04 06:17:26;;;;;;;;;;;;;;;-2.16;60.55;97957.00;4971764;28;19922;-78
2023/12/04 06:20:15;;;;;;;;;;;;;;;-2.16;60.52;97951.66;4972733;28;20498;-78
2023/12/04 06:23:05;;;;;;;;;;;;;;;-2.21;60.93;97954.19;4956873;28;20368;-78
2023/12/04 06:25:54;;;;;;;;;;;;;;;-2.18;60.60;97945.78;4964299;28;19937;-78
2023/12/04 06:28:43;;;;;;;;;;;;;;;-2.11;60.53;97949.13;4966718;28;21297;-77
2023/12/04 06:31:32;;;;;;;;;;;;;;;-1.98;60.00;97952.63;4971080;28;20000;-77
2023/12/04 06:34:24;;;;;;;;;;;;;;;-2.10;60.51;97941.97;4972221;28;20388;-78
2023/12/04 06:37:13;;;;;;;;;;;;;;;-2.10;59.67;97944.63;4971277;28;20094;-78
2023/12/04 06:40:03;;;;;;;;;;;;;;;-2.09;60.25;97945.44;4973393;28;19936;-78
2023/12/04 06:46:07;;;;;;;;;;;;;;;-3.02;62.61;97946.72;4967918;28;19929;-78
2023/12/04 06:48:56;;;;;;;;;;;;;;;-2.66;62.42;97948.53;4971853;28;19926;-78
2023/12/04 06:51:45;;;;;;;;;;;;;;;-2.62;61.53;97936.38;4972426;28;19937;-78
2023/12/04 06:54:36;;;;;;;;;;;;;;;-2.31;61.31;97931.84;4969239;28;20372;-78
2023/12/04 06:57:26;;;;;;;;;;;;;;;-2.25;61.04;97925.59;4952373;28;20288;-78
2023/12/04 07:00:16;;;;;;;;;;;;;;;-2.09;60.43;97924.13;4969178;28;19932;-78
2023/12/04 07:03:08;;;;;;;;;;;;;;;-2.01;60.41;97927.28;4968700;28;19969;-79
2023/12/04 07:05:57;;;;;;;;;;;;;;;-1.88;60.04;97928.91;4962144;28;19980;-78
2023/12/04 07:08:45;;;;;;;;;;;;;;;-1.86;60.13;97930.31;4948389;28;19933;-78
2023/12/04 07:11:34;;;;;;;;;;;;;;;-1.72;60.13;97933.53;4960038;28;20001;-80
2023/12/04 07:20:48;;;;;;;;;;;;;;;-1.80;60.20;97917.91;4963560;28;20439;-77
2023/12/04 07:23:38;;;;;;;;;;;;;;;-1.70;59.88;97926.13;4965068;28;19930;-78
2023/12/04 07:26:26;;;;;;;;;;;;;;;-1.88;60.38;97940.34;4957264;28;19941;-78
2023/12/04 07:29:20;;;;;;;;;;;;;;;-1.86;60.48;97929.50;4954762;28;19932;-78
2023/12/04 07:32:10;;;;;;;;;;;;;;;-1.78;60.10;97915.81;4966878;28;19939;-78
2023/12/04 07:34:58;;;;;;;;;;;;;;;-1.77;60.35;97905.97;4970386;28;19933;-79
2023/12/04 07:37:47;;;;;;;;;;;;;;;-1.72;60.28;97901.56;4963592;28;20008;-79
2023/12/04 07:40:35;;;;;;;;;;;;;;;-2.57;62.32;97901.94;4965821;28;20430;-78
2023/12/04 07:43:24;;;;;;;;;;;;;;;-2.09;61.62;97897.50;4962545;28;20364;-78
2023/12/04 07:46:13;;;;;;;;;;;;;;;-1.97;61.56;97901.81;4962827;28;19923;-78
2023/12/04 07:49:03;;;;;;;;;;;;;;;-1.74;60.96;97890.34;4966676;28;19934;-77
2023/12/04 07:51:52;;;;;;;;;;;;;;;-1.73;60.90;97891.97;4965430;28;19985;-78
2023/12/04 07:54:40;;;;;;;;;;;;;;;-1.68;61.14;97892.09;4968210;28;19969;-80
2023/12/04 07:57:28;;;;;;;;;;;;;;;-1.55;60.32;97895.53;4968214;28;19926;-78
2023/12/04 08:00:18;;;;;;;;;;;;;;;-1.78;60.46;97901.69;4966159;28;20017;-79
2023/12/04 08:03:06;;;;;;;;;;;;;;;-1.54;60.40;97899.84;4965832;28;20636;-78
2023/12/04 08:05:58;;;;;;;;;;;;;;;-1.45;60.81;97888.56;4963203;28;19927;-79
2023/12/04 08:08:46;;;;;;;;;;;;;;;-1.42;60.48;97892.63;4968315;28;19926;-78
2023/12/04 08:11:34;;;;;;;;;;;;;;;-1.41;59.96;97886.25;4968639;28;19941;-78
2023/12/04 08:14:47;;;;;;;;;;;;;;;-1.47;60.22;97885.34;4949064;28;20284;-77
2023/12/04 08:17:36;;;;;;;;;;;;;;;-1.61;59.70;97884.75;4967038;28;19926;-79
2023/12/04 08:20:28;;;;;;;;;;;;;;;-1.25;59.81;97872.19;4969033;28;20251;-80
2023/12/04 08:23:25;;;;;;;;;;;;;;;-1.43;59.77;97869.69;4967362;28;20288;-78
2023/12/04 08:26:14;;;;;;;;;;;;;;;-1.22;59.77;97863.75;4968895;28;19994;-78
2023/12/04 08:29:27;;;;;;;;;;;;;;;-1.20;59.59;97866.97;4957384;28;19922;-79
2023/12/04 08:32:41;;;;;;;;;;;;;;;-1.04;59.51;97873.41;4972604;28;20005;-79
2023/12/04 08:35:30;;;;;;;;;;;;;;;-0.81;58.73;97872.50;4973255;28;19922;-78
2023/12/04 08:38:43;;;;;;;;;;;;;;;-0.95;58.70;97871.19;4959797;28;19922;-77
2023/12/04 08:41:34;;;;;;;;;;;;;;;-0.79;58.66;97865.09;4963536;28;20288;-80
2023/12/04 08:44:22;;;;;;;;;;;;;;;-0.62;58.32;97870.44;4969430;28;19942;-80
2023/12/04 08:47:11;;;;;;;;;;;;;;;-0.83;58.64;97863.94;4968966;28;19929;-81
2023/12/04 08:53:12;;;;;;;;;;;;;;;-0.68;58.88;97866.88;4966927;28;19923;-79
2023/12/04 08:56:02;;;;;;;;;;;;;;;-0.88;59.02;97869.97;4969020;28;20482;-78
2023/12/04 08:58:52;;;;;;;;;;;;;;;-0.69;59.15;97867.94;4960328;28;19926;-79
2023/12/04 09:01:40;;;;;;;;;;;;;;;-0.62;59.06;97871.25;4971118;28;19929;-79
2023/12/04 09:04:29;;;;;;;;;;;;;;;-0.38;58.68;97876.44;4967538;28;19928;-79
2023/12/04 09:07:20;;;;;;;;;;;;;;;-0.35;58.67;97871.44;4966692;28;19934;-79
2023/12/04 09:10:11;;;;;;;;;;;;;;;-0.20;58.42;97868.22;4966763;28;20300;-80
2023/12/04 09:13:30;;;;;;;;;;;;;;;-0.12;57.85;97865.13;4973078;28;20391;-80
2023/12/04 09:16:21;;;;;;;;;;;;;;;-0.04;58.08;97864.72;4970593;28;19925;-79
2023/12/04 09:19:10;;;;;;;;;;;;;;;-0.07;58.41;97857.19;4972892;28;19933;-78
2023/12/04 09:22:00;;;;;;;;;;;;;;;-0.59;57.85;97860.09;4969483;28;19922;-80
2023/12/04 09:25:20;;;;;;;;;;;;;;;-1.22;60.65;97853.06;4959822;28;19949;-80
2023/12/04 09:28:32;;;;;;;;;;;;;;;-0.55;60.01;97860.41;4971932;28;20383;-80
2023/12/04 09:31:21;;;;;;;;;;;;;;;-0.18;58.82;97854.63;4970637;28;19929;-80
2023/12/04 09:34:10;;;;;;;;;;;;;;;-0.18;58.96;97854.63;4972823;28;19944;-81
2023/12/04 09:36:58;;;;;;;;;;;;;;;-0.24;58.50;97845.72;4956293;28;19926;-79
2023/12/04 09:39:55;;;;;;;;;;;;;;;-0.15;58.59;97825.56;4969496;28;20053;-79
2023/12/04 09:46:01;;;;;;;;;;;;;;;-0.62;60.09;97831.22;4968174;28;20391;-79
2023/12/04 09:48:50;;;;;;;;;;;;;;;-0.33;59.43;97826.63;4970426;28;20390;-79
2023/12/04 09:51:40;;;;;;;;;;;;;;;-0.30;59.10;97825.34;4968529;28;20011;-78
2023/12/04 09:54:30;;;;;;;;;;;;;;;-0.11;58.63;97826.69;4964528;28;19968;-81
2023/12/04 09:57:18;;;;;;;;;;;;;;;-0.12;58.61;97811.72;4954168;28;20004;-81
2023/12/04 10:00:08;;;;;;;;;;;;;;;-0.34;59.15;97818.88;4969525;28;20020;-79
2023/12/04 10:02:59;;;;;;;;;;;;;;;-0.25;59.78;97813.94;4967428;28;19926;-79
2023/12/04 10:05:49;;;;;;;;;;;;;;;0.02;58.60;97817.53;4963550;28;20288;-79
2023/12/04 10:08:38;;;;;;;;;;;;;;;0.30;58.34;97819.25;4954322;28;19937;-79
2023/12/04 10:11:51;;;;;;;;;;;;;;;0.43;58.06;97813.56;4972134;28;19972;-80
2023/12/04 10:14:42;;;;;;;;;;;;;;;0.52;56.94;97817.38;4971766;28;20012;-80
2023/12/04 10:17:37;;;;;;;;;;;;;;;0.54;57.08;97793.09;4962871;28;20025;-80
2023/12/04 10:20:25;;;;;;;;;;;;;;;0.50;56.78;97792.78;4970288;28;19922;-78
2023/12/04 10:23:15;;;;;;;;;;;;;;;0.76;56.41;97791.22;4956272;28;19926;-79
2023/12/04 10:26:04;;;;;;;;;;;;;;;0.92;55.62;97772.66;4977154;28;19922;-80
2023/12/04 10:32:11;;;;;;;;;;;;;;;0.67;55.70;97749.13;4968307;28;19941;-79
2023/12/04 10:35:00;;;;;;;;;;;;;;;0.65;55.75;97735.22;4968689;28;19926;-80
2023/12/04 10:37:49;;;;;;;;;;;;;;;0.77;55.87;97727.84;4967661;28;20415;-80
2023/12/04 10:40:38;;;;;;;;;;;;;;;0.50;56.68;97717.94;4955960;28;20283;-80
2023/12/04 10:43:27;;;;;;;;;;;;;;;0.72;56.58;97703.72;4953647;28;20328;-79
2023/12/04 10:46:16;;;;;;;;;;;;;;;0.94;56.55;97700.97;4965887;28;20336;-80
2023/12/04 10:49:05;;;;;;;;;;;;;;;0.58;56.24;97691.81;4967351;28;20017;-82
2023/12/04 10:51:54;;;;;;;;;;;;;;;0.90;56.44;97695.31;4952536;28;19922;-80
2023/12/04 10:54:43;;;;;;;;;;;;;;;1.07;56.00;97697.91;4948473;28;19923;-80
2023/12/04 10:57:34;;;;;;;;;;;;;;;0.97;56.06;97695.94;4972467;28;19929;-80
2023/12/04 11:04:00;;;;;;;;;;;;;;;0.95;56.24;97687.34;4962191;28;20030;-81
2023/12/04 11:06:49;;;;;;;;;;;;;;;0.38;56.73;97674.53;4961799;28;19934;-78
2023/12/04 11:09:38;;;;;;;;;;;;;;;0.47;56.72;97669.53;4970935;28;19944;-79
2023/12/04 11:12:26;;;;;;;;;;;;;;;0.10;57.19;97661.38;4971303;28;19922;-80
2023/12/04 11:15:17;;;;;;;;;;;;;;;0.45;57.40;97652.94;4956739;28;20413;-80
2023/12/04 11:18:06;;;;;;;;;;;;;;;0.83;56.79;97654.63;4967959;28;20082;-81
2023/12/04 11:20:56;;;;;;;;;;;;;;;0.89;56.31;97650.13;4950241;28;19926;-81
2023/12/04 11:23:45;;;;;;;;;;;;;;;0.59;56.75;97640.78;4963039;28;19929;-82
2023/12/04 11:26:34;;;;;;;;;;;;;;;0.15;57.82;97624.84;4969410;28;20357;-81
2023/12/04 11:29:23;;;;;;;;;;;;;;;0.51;57.40;97631.34;4967939;28;20256;-79
2023/12/04 11:32:16;;;;;;;;;;;;;;;0.91;57.31;97629.28;4967801;28;20334;-81
2023/12/04 11:35:07;;;;;;;;;;;;;;;1.16;56.54;97625.97;4971824;28;20053;-81
2023/12/04 11:37:55;;;;;;;;;;;;;;;1.05;56.50;97633.94;4952764;28;19923;-79
2023/12/04 11:41:34;;;;;;;;;;;;;;;0.76;57.22;97625.44;4952649;28;20071;-82
2023/12/04 11:44:24;;;;;;;;;;;;;;;0.77;56.07;97624.34;4970399;28;19922;-81
2023/12/04 11:50:30;;;;;;;;;;;;;;;1.03;56.03;97617.34;4954383;28;19929;-80
2023/12/04 11:53:44;;;;;;;;;;;;;;;1.07;56.88;97619.53;4964015;28;20183;-81
2023/12/04 11:57:24;;;;;;;;;;;;;;;1.33;55.54;97615.91;4967240;28;19926;-81
2023/12/04 12:00:14;;;;;;;;;;;;;;;0.35;57.16;97600.19;4965113;28;19929;-80
2023/12/04 12:03:06;;;;;;;;;;;;;;;0.54;57.24;97607.88;4969473;28;20016;-81
2023/12/04 12:06:06;;;;;;;;;;;;;;;0.69;57.07;97602.63;4966248;28;19926;-82
2023/12/04 12:08:54;;;;;;;;;;;;;;;0.69;57.26;97603.47;4964412;28;19977;-80
2023/12/04 12:11:43;;;;;;;;;;;;;;;0.73;57.34;97603.72;4973676;28;20024;-80
2023/12/04 12:17:44;;;;;;;;;;;;;;;1.51;55.73;97615.50;4968682;28;20390;-82
2023/12/04 12:20:37;;;;;;;;;;;;;;;1.36;55.81;97610.06;4955047;28;19945;-82
2023/12/04 12:23:26;;;;;;;;;;;;;;;1.39;54.96;97614.09;4967732;28;20284;-81
2023/12/04 12:26:16;;;;;;;;;;;;;;;1.57;54.88;97608.28;4968691;28;19929;-81
2023/12/04 12:32:17;;;;;;;;;;;;;;;1.66;54.68;97595.22;4972236;28;19929;-82
2023/12/04 12:35:07;;;;;;;;;;;;;;;0.97;54.94;97599.66;4971409;28;20473;-82
2023/12/04 12:37:57;;;;;;;;;;;;;;;1.22;55.56;97596.31;4970807;28;19922;-82
2023/12/04 12:40:45;;;;;;;;;;;;;;;1.34;55.63;97600.69;4966294;28;19922;-82
2023/12/04 12:43:37;;;;;;;;;;;;;;;1.32;55.78;97608.94;4979168;28;19922;-80
2023/12/04 12:46:26;;;;;;;;;;;;;;;1.31;55.50;97607.34;4955827;28;19950;-82
2023/12/04 12:49:40;;;;;;;;;;;;;;;1.46;54.81;97599.41;4961413;28;19957;-81
2023/12/04 12:52:58;;;;;;;;;;;;;;;1.42;55.91;97592.94;4963245;28;20344;-81
2023/12/04 12:55:47;;;;;;;;;;;;;;;1.47;55.40;97566.22;4962818;28;19922;-80
2023/12/04 12:58:35;;;;;;;;;;;;;;;0.49;57.79;97573.88;4959378;28;20291;-80
2023/12/04 13:01:25;;;;;;;;;;;;;;;0.45;58.18;97570.91;4960698;28;19929;-81
2023/12/04 13:04:15;;;;;;;;;;;;;;;0.69;58.37;97570.53;4956634;28;20014;-81
2023/12/04 13:07:06;;;;;;;;;;;;;;;0.67;57.65;97572.69;4967153;28;19930;-80
2023/12/04 13:09:55;;;;;;;;;;;;;;;0.70;57.54;97566.81;4970109;28;19922;-81
2023/12/04 13:12:44;;;;;;;;;;;;;;;0.86;58.06;97568.56;4964201;28;19974;-81
2023/12/04 13:19:08;;;;;;;;;;;;;;;1.18;57.68;97546.28;4959314;28;20020;-81
2023/12/04 13:21:56;;;;;;;;;;;;;;;1.27;58.16;97550.06;4957790;28;20364;-82
2023/12/04 13:28:26;;;;;;;;;;;;;;;1.32;56.29;97552.75;4972621;28;20130;-80
2023/12/04 13:31:20;;;;;;;;;;;;;;;1.31;56.88;97553.81;4971543;28;20355;-82
2023/12/04 13:34:09;;;;;;;;;;;;;;;1.48;56.83;97549.06;4972646;28;19992;-81
2023/12/04 13:37:00;;;;;;;;;;;;;;;1.51;57.03;97535.19;4956174;28;19926;-81
2023/12/04 13:39:50;;;;;;;;;;;;;;;1.54;56.07;97544.53;4968061;28;19969;-81
2023/12/04 13:46:11;;;;;;;;;;;;;;;1.34;57.91;97539.13;4959815;28;20368;-81
2023/12/04 13:49:01;;;;;;;;;;;;;;;1.36;57.43;97532.44;4970302;28;19969;-84
2023/12/04 13:51:49;;;;;;;;;;;;;;;1.42;57.63;97528.72;4956508;28;19930;-82
2023/12/04 13:54:44;;;;;;;;;;;;;;;1.48;56.49;97519.63;4966935;28;20090;-82
2023/12/04 13:57:43;;;;;;;;;;;;;;;0.89;58.55;97519.88;4971275;28;19957;-80
2023/12/04 14:00:32;;;;;;;;;;;;;;;0.96;59.03;97509.78;4959206;28;20008;-80
2023/12/04 14:03:22;;;;;;;;;;;;;;;1.00;58.28;97492.13;4956079;28;19933;-81
2023/12/04 14:06:12;;;;;;;;;;;;;;;1.05;58.31;97489.47;4969270;28;19934;-81
2023/12/04 14:09:01;;;;;;;;;;;;;;;0.59;58.06;97480.41;4968195;28;19988;-80
2023/12/04 14:11:49;;;;;;;;;;;;;;;0.69;60.09;97468.94;4969602;28;20322;-81
2023/12/04 14:15:03;;;;;;;;;;;;;;;1.11;58.74;97460.06;4968207;28;19930;-82
2023/12/04 14:17:51;;;;;;;;;;;;;;;1.02;58.69;97449.88;4968164;28;20076;-81
2023/12/04 14:20:40;;;;;;;;;;;;;;;0.53;59.55;97443.97;4967621;28;19934;-80
2023/12/04 14:23:29;;;;;;;;;;;;;;;0.90;58.89;97433.22;4968475;28;19973;-80
2023/12/04 14:26:17;;;;;;;;;;;;;;;0.84;58.85;97436.94;4958751;28;19928;-81
2023/12/04 14:29:30;;;;;;;;;;;;;;;0.90;58.86;97438.56;4968078;28;20491;-80
2023/12/04 14:32:19;;;;;;;;;;;;;;;0.90;57.59;97448.47;4972059;28;20607;-79
2023/12/04 14:35:34;;;;;;;;;;;;;;;0.90;57.84;97441.25;4971597;28;19922;-80
2023/12/04 14:38:48;;;;;;;;;;;;;;;1.09;57.95;97441.63;4970664;28;20280;-81
2023/12/04 14:41:38;;;;;;;;;;;;;;;0.73;58.00;97436.09;4967342;28;19929;-81
2023/12/04 14:44:28;;;;;;;;;;;;;;;0.96;57.94;97434.88;4966291;28;20126;-82
2023/12/04 14:47:41;;;;;;;;;;;;;;;0.32;59.93;97419.03;4968352;28;20391;-81
2023/12/04 14:50:29;;;;;;;;;;;;;;;0.49;60.32;97422.34;4967197;28;19922;-81
2023/12/04 14:53:28;;;;;;;;;;;;;;;0.49;60.20;97422.34;4969811;28;20353;-81
2023/12/04 15:06:32;;;;;;;;;;;;;;;0.46;61.54;97400.66;4966683;28;20032;-81
2023/12/04 15:12:28;;;;;;;;;;;;;;;0.86;59.94;97409.97;4944073;28;19922;-80
2023/12/04 15:22:02;;;;;;;;;;;;;;;1.05;59.75;97429.81;4968703;28;20013;-82
2023/12/04 15:28:28;;;;;;;;;;;;;;;1.05;60.42;97422.59;4963009;28;20013;-80
2023/12/04 15:31:16;;;;;;;;;;;;;;;0.93;59.77;97410.53;4970411;28;19922;-80
2023/12/04 15:34:05;;;;;;;;;;;;;;;0.97;59.62;97416.97;4973342;28;19929;-81
2023/12/04 15:36:54;;;;;;;;;;;;;;;0.66;60.19;97411.47;4952425;28;19928;-82
2023/12/04 15:39:42;;;;;;;;;;;;;;;0.96;59.92;97402.78;4963878;28;20069;-80
2023/12/04 15:42:56;;;;;;;;;;;;;;;1.04;59.33;97401.47;4969134;28;19957;-80
2023/12/04 15:46:10;;;;;;;;;;;;;;;0.63;59.23;97395.94;4961600;28;19923;-81
2023/12/04 15:49:00;;;;;;;;;;;;;;;0.63;59.47;97392.47;4953563;28;20300;-80
2023/12/04 15:51:49;;;;;;;;;;;;;;;0.90;58.87;97392.31;4967202;28;19926;-81
2023/12/04 15:54:36;;;;;;;;;;;;;;;0.76;58.41;97390.13;4949089;28;19922;-80
2023/12/04 15:57:54;;;;;;;;;;;;;;;0.92;58.61;97388.31;4967656;28;20069;-81
2023/12/04 16:00:43;;;;;;;;;;;;;;;0.88;58.49;97386.44;4970097;28;20415;-80
2023/12/04 16:03:32;;;;;;;;;;;;;;;0.09;59.84;97384.66;4953083;28;20073;-80
2023/12/04 16:06:22;;;;;;;;;;;;;;;0.63;59.10;97387.91;4966502;28;19933;-81
2023/12/04 16:09:13;;;;;;;;;;;;;;;0.48;60.23;97380.66;4963116;28;20295;-82
2023/12/04 16:12:02;;;;;;;;;;;;;;;0.43;60.25;97387.81;4960651;28;19937;-81
2023/12/04 16:14:55;;;;;;;;;;;;;;;0.45;59.77;97381.16;4968391;28;19929;-80
2023/12/04 16:17:43;;;;;;;;;;;;;;;0.09;59.96;97379.31;4954046;28;19922;-82
2023/12/04 16:20:31;;;;;;;;;;;;;;;0.31;59.40;97392.53;4966724;28;20013;-80
2023/12/04 16:23:22;;;;;;;;;;;;;;;0.48;59.88;97399.34;4968878;28;20706;-83
2023/12/04 16:26:40;;;;;;;;;;;;;;;0.65;59.60;97387.69;4969535;28;20283;-81
2023/12/04 16:29:33;;;;;;;;;;;;;;;0.69;59.62;97391.41;4950180;28;19937;-82
2023/12/04 16:32:22;;;;;;;;;;;;;;;0.63;59.03;97387.09;4969048;28;19953;-80
2023/12/04 16:35:11;;;;;;;;;;;;;;;0.60;58.75;97385.78;4951175;28;19934;-81
2023/12/04 16:37:59;;;;;;;;;;;;;;;0.54;59.09;97372.66;4968486;28;19945;-81
2023/12/04 16:40:49;;;;;;;;;;;;;;;0.67;58.31;97374.84;4969121;28;19930;-82
2023/12/04 16:43:38;;;;;;;;;;;;;;;0.70;57.99;97368.97;4956072;28;19922;-81
2023/12/04 16:46:27;;;;;;;;;;;;;;;0.29;59.03;97363.41;4967387;28;20359;-82